createdAt,value
2023-05-05T00:02:13.138Z,11.87
2023-05-05T00:04:44.471Z,11.85
2023-05-05T00:07:15.331Z,11.84
2023-05-05T00:09:49.028Z,11.83
2023-05-05T00:12:20.291Z,11.81
2023-05-05T00:14:51.588Z,11.81
2023-05-05T00:17:22.028Z,11.82
2023-05-05T00:19:52.489Z,11.83
2023-05-05T00:22:22.832Z,11.83
2023-05-05T00:24:53.004Z,11.82
2023-05-05T00:27:23.511Z,11.81
2023-05-05T00:29:53.834Z,11.83
2023-05-05T00:32:24.556Z,11.86
2023-05-05T00:34:56.377Z,11.91
2023-05-05T00:37:27.320Z,11.95
2023-05-05T00:39:57.642Z,11.99
2023-05-05T00:42:28.287Z,12.03
2023-05-05T00:44:58.643Z,12.05
2023-05-05T00:47:29.366Z,12.07
2023-05-05T00:50:00.104Z,12.09
2023-05-05T00:52:31.029Z,12.09
2023-05-05T00:55:01.620Z,12.09
2023-05-05T00:57:32.221Z,12.08
2023-05-05T01:00:02.927Z,12.07
2023-05-05T01:02:33.193Z,12.04
2023-05-05T01:05:04.550Z,12.02
2023-05-05T01:07:42.337Z,12.00
2023-05-05T01:10:20.269Z,11.98
2023-05-05T01:12:58.019Z,11.95
2023-05-05T01:15:34.027Z,11.92
2023-05-05T01:18:11.125Z,11.89
2023-05-05T01:20:42.314Z,11.86
2023-05-05T01:23:22.921Z,11.83
2023-05-05T01:26:09.483Z,11.81
2023-05-05T01:29:08.479Z,11.79
2023-05-05T01:31:52.869Z,11.77
2023-05-05T01:34:27.031Z,11.77
2023-05-05T01:37:02.154Z,11.77
2023-05-05T01:39:35.522Z,11.78
2023-05-05T01:42:09.030Z,11.78
2023-05-05T01:44:39.779Z,11.79
2023-05-05T01:47:11.216Z,11.80
2023-05-05T01:49:42.318Z,11.81
2023-05-05T01:52:13.114Z,11.80
2023-05-05T01:54:47.755Z,11.80
2023-05-05T01:57:20.886Z,11.80
2023-05-05T01:59:52.808Z,11.80
2023-05-05T02:02:24.766Z,11.78
2023-05-05T02:04:56.486Z,11.78
2023-05-05T02:07:27.200Z,11.76
2023-05-05T02:09:58.308Z,11.75
2023-05-05T02:12:30.006Z,11.74
2023-05-05T02:15:01.978Z,11.74
2023-05-05T02:17:33.052Z,11.75
2023-05-05T02:20:04.185Z,11.76
2023-05-05T02:22:34.565Z,11.78
2023-05-05T02:25:06.131Z,11.80
2023-05-05T02:27:37.926Z,11.82
2023-05-05T02:30:11.642Z,11.82
2023-05-05T02:32:47.060Z,11.87
2023-05-05T02:35:20.093Z,11.99
2023-05-05T02:37:59.288Z,12.23
2023-05-05T02:40:30.923Z,12.59
2023-05-05T02:43:04.882Z,13.10
2023-05-05T02:45:35.424Z,13.77
2023-05-05T02:48:06.778Z,14.54
2023-05-05T02:50:38.038Z,15.37
2023-05-05T02:53:08.608Z,16.20
2023-05-05T02:55:44.600Z,17.01
2023-05-05T02:58:22.574Z,17.85
2023-05-05T03:01:00.264Z,18.66
2023-05-05T03:03:35.345Z,19.48
2023-05-05T03:06:11.231Z,20.24
2023-05-05T03:08:44.814Z,20.96
2023-05-05T03:11:19.287Z,21.75
2023-05-05T03:13:54.153Z,22.56
2023-05-05T03:16:24.970Z,23.35
2023-05-05T03:18:55.974Z,24.11
2023-05-05T03:21:26.656Z,24.87
2023-05-05T03:23:57.212Z,25.60
2023-05-05T03:26:27.591Z,26.33
2023-05-05T03:28:58.026Z,27.03
2023-05-05T03:31:28.801Z,27.70
2023-05-05T03:33:59.150Z,28.40
2023-05-05T03:36:29.625Z,29.06
2023-05-05T03:39:00.183Z,29.75
2023-05-05T03:41:32.410Z,30.35
2023-05-05T03:44:02.924Z,30.95
2023-05-05T03:46:33.135Z,31.44
2023-05-05T03:49:03.512Z,31.98
2023-05-05T03:51:33.998Z,32.53
2023-05-05T03:54:04.419Z,33.11
2023-05-05T03:56:34.876Z,33.63
2023-05-05T03:59:05.384Z,34.09
2023-05-05T04:01:35.944Z,34.60
2023-05-05T04:04:06.648Z,35.14
2023-05-05T04:06:38.136Z,35.63
2023-05-05T04:09:08.682Z,35.99
2023-05-05T04:11:38.919Z,36.36
2023-05-05T04:14:09.089Z,36.70
2023-05-05T04:16:39.356Z,37.05
2023-05-05T04:19:09.580Z,37.52
2023-05-05T04:21:40.751Z,38.03
2023-05-05T04:24:11.178Z,38.46
2023-05-05T04:26:41.321Z,38.88
2023-05-05T04:29:11.978Z,39.23
2023-05-05T04:31:42.567Z,39.59
2023-05-05T04:34:12.763Z,40.01
2023-05-05T04:36:42.970Z,40.37
2023-05-05T04:39:13.213Z,40.76
2023-05-05T04:41:43.343Z,41.20
2023-05-05T04:44:14.384Z,41.62
2023-05-05T04:46:44.870Z,41.94
2023-05-05T04:49:15.004Z,42.29
2023-05-05T04:51:46.294Z,42.70
2023-05-05T04:54:16.553Z,43.12
2023-05-05T04:56:47.559Z,43.54
2023-05-05T04:59:18.002Z,43.98
2023-05-05T05:01:48.314Z,44.20
2023-05-05T05:04:19.137Z,44.32
2023-05-05T05:06:49.511Z,44.62
2023-05-05T05:09:19.903Z,44.94
2023-05-05T05:11:50.610Z,45.40
2023-05-05T05:14:21.091Z,45.81
2023-05-05T05:16:52.104Z,46.13
2023-05-05T05:19:22.516Z,46.41
2023-05-05T05:21:52.827Z,46.62
2023-05-05T05:24:24.024Z,46.69
2023-05-05T05:26:54.542Z,46.61
2023-05-05T05:29:24.929Z,46.73
2023-05-05T05:31:55.068Z,46.99
2023-05-05T05:34:28.369Z,47.19
2023-05-05T05:36:58.487Z,47.23
2023-05-05T05:39:29.626Z,47.58
2023-05-05T05:42:00.315Z,48.00
2023-05-05T05:44:30.942Z,48.30
2023-05-05T05:47:01.885Z,48.58
2023-05-05T05:49:34.534Z,49.05
2023-05-05T05:52:06.656Z,49.47
2023-05-05T05:54:37.484Z,49.72
2023-05-05T05:57:08.003Z,49.93
2023-05-05T05:59:40.923Z,50.04
2023-05-05T06:02:11.327Z,50.32
2023-05-05T06:04:42.286Z,50.23
2023-05-05T06:07:13.450Z,49.87
2023-05-05T06:09:43.997Z,49.64
2023-05-05T06:12:14.309Z,49.66
2023-05-05T06:14:45.566Z,49.78
2023-05-05T06:17:16.048Z,50.11
2023-05-05T06:19:46.375Z,50.27
2023-05-05T06:22:16.801Z,50.30
2023-05-05T06:24:47.599Z,50.24
2023-05-05T06:27:18.352Z,50.29
2023-05-05T06:29:49.035Z,50.66
2023-05-05T06:32:20.115Z,50.95
2023-05-05T06:34:50.772Z,51.09
2023-05-05T06:37:21.130Z,50.91
2023-05-05T06:39:51.271Z,50.47
2023-05-05T06:42:21.654Z,50.08
2023-05-05T06:44:52.348Z,49.85
2023-05-05T06:47:23.079Z,49.53
2023-05-05T06:49:53.759Z,49.14
2023-05-05T06:52:24.217Z,48.96
2023-05-05T06:54:57.395Z,49.09
2023-05-05T06:57:28.525Z,49.26
2023-05-05T06:59:58.920Z,49.28
2023-05-05T07:02:29.728Z,49.12
2023-05-05T07:05:00.088Z,48.48
2023-05-05T07:07:32.806Z,47.08
2023-05-05T07:10:04.422Z,44.79
2023-05-05T07:12:34.662Z,42.45
2023-05-05T07:15:19.228Z,40.20
2023-05-05T07:17:56.250Z,38.01
2023-05-05T07:20:26.901Z,36.10
2023-05-05T07:22:57.799Z,34.69
2023-05-05T07:25:29.355Z,33.50
2023-05-05T07:27:59.864Z,32.64
2023-05-05T07:30:30.192Z,31.91
2023-05-05T07:33:00.544Z,31.37
2023-05-05T07:35:33.141Z,30.92
2023-05-05T07:38:03.886Z,30.63
2023-05-05T07:40:34.263Z,30.39
2023-05-05T07:43:05.462Z,30.17
2023-05-05T07:45:35.915Z,29.83
2023-05-05T07:48:06.514Z,29.42
2023-05-05T07:50:36.821Z,29.05
2023-05-05T07:53:14.383Z,28.59
2023-05-05T07:55:46.027Z,28.30
2023-05-05T07:58:17.275Z,28.11
2023-05-05T08:00:49.071Z,28.06
2023-05-05T08:03:24.005Z,28.11
2023-05-05T08:05:56.829Z,28.17
2023-05-05T08:08:27.525Z,28.25
2023-05-05T08:10:57.966Z,28.28
2023-05-05T08:13:28.283Z,28.14
2023-05-05T08:15:59.211Z,27.57
2023-05-05T08:18:29.572Z,27.02
2023-05-05T08:21:00.577Z,26.66
2023-05-05T08:23:31.497Z,26.36
2023-05-05T08:26:01.934Z,26.23
2023-05-05T08:28:32.593Z,26.17
2023-05-05T08:31:02.858Z,26.12
2023-05-05T08:33:33.178Z,26.13
2023-05-05T08:36:04.047Z,26.15
2023-05-05T08:38:34.441Z,26.09
2023-05-05T08:41:04.640Z,26.10
2023-05-05T08:43:36.303Z,26.10
2023-05-05T08:46:07.127Z,26.10
2023-05-05T08:48:37.628Z,26.07
2023-05-05T08:51:09.639Z,26.02
2023-05-05T08:53:49.633Z,25.95
2023-05-05T08:56:21.781Z,25.87
2023-05-05T08:58:52.794Z,25.84
2023-05-05T09:01:31.864Z,25.80
2023-05-05T09:04:03.461Z,25.78
2023-05-05T09:06:34.357Z,25.75
2023-05-05T09:09:05.893Z,25.75
2023-05-05T09:11:37.154Z,25.67
2023-05-05T09:14:07.596Z,25.54
2023-05-05T09:16:38.274Z,25.41
2023-05-05T09:19:09.066Z,25.35
2023-05-05T09:21:48.919Z,25.22
2023-05-05T09:24:19.635Z,24.88
2023-05-05T09:26:50.997Z,24.56
2023-05-05T09:29:23.239Z,24.36
2023-05-05T09:32:08.281Z,24.18
2023-05-05T09:34:42.045Z,24.08
2023-05-05T09:37:13.180Z,24.07
2023-05-05T09:39:55.059Z,24.06
2023-05-05T09:42:27.722Z,24.03
2023-05-05T09:44:59.928Z,24.07
2023-05-05T09:47:39.279Z,24.13
2023-05-05T09:50:11.374Z,24.21
2023-05-05T09:52:42.494Z,24.34
2023-05-05T09:55:18.970Z,24.47
2023-05-05T09:57:47.952Z,24.53
2023-05-05T10:00:19.295Z,24.56
2023-05-05T10:02:52.910Z,24.61
2023-05-05T10:05:23.373Z,24.61
2023-05-05T10:07:53.834Z,24.60
2023-05-05T10:10:24.575Z,24.58
2023-05-05T10:12:58.343Z,24.56
2023-05-05T10:15:35.350Z,24.60
2023-05-05T10:18:09.294Z,24.72
2023-05-05T10:20:43.941Z,24.81
2023-05-05T10:23:19.199Z,24.90
2023-05-05T10:25:57.552Z,24.95
2023-05-05T10:28:34.359Z,25.06
2023-05-05T10:31:24.230Z,25.14
2023-05-05T10:34:04.266Z,25.23
2023-05-05T10:36:36.375Z,25.25
2023-05-05T10:39:09.104Z,25.28
2023-05-05T10:41:39.848Z,25.33
2023-05-05T10:44:11.354Z,25.35
2023-05-05T10:46:43.094Z,25.33
2023-05-05T10:49:20.381Z,25.28
2023-05-05T10:51:55.324Z,25.25
2023-05-05T10:54:31.079Z,25.22
2023-05-05T10:57:04.862Z,25.22
2023-05-05T10:59:48.097Z,25.26
2023-05-05T11:02:26.213Z,25.40
2023-05-05T11:05:18.364Z,25.59
2023-05-05T11:07:54.841Z,25.71
2023-05-05T11:10:27.899Z,25.84
2023-05-05T11:13:30.188Z,26.06
2023-05-05T11:16:01.809Z,26.26
2023-05-05T11:18:35.735Z,26.37
2023-05-05T11:21:16.952Z,26.47
2023-05-05T11:23:49.928Z,26.62
2023-05-05T11:26:41.631Z,26.78
2023-05-05T11:29:12.600Z,26.97
2023-05-05T11:31:47.475Z,27.00
2023-05-05T11:34:28.608Z,26.99
2023-05-05T11:37:05.734Z,27.09
2023-05-05T11:39:43.937Z,27.17
2023-05-05T11:42:27.799Z,27.19
2023-05-05T11:45:00.226Z,27.09
2023-05-05T11:47:32.530Z,26.96
2023-05-05T11:50:22.850Z,26.82
2023-05-05T11:53:01.740Z,26.73
2023-05-05T11:55:32.609Z,26.72
2023-05-05T11:58:03.697Z,26.71
2023-05-05T12:00:34.638Z,26.66
2023-05-05T12:03:05.870Z,26.64
2023-05-05T12:05:37.520Z,26.61
2023-05-05T12:08:07.971Z,26.57
2023-05-05T12:10:38.835Z,26.47
2023-05-05T12:13:21.442Z,26.38
2023-05-05T12:15:52.715Z,26.30
2023-05-05T12:18:23.474Z,26.25
2023-05-05T12:20:56.501Z,26.27
2023-05-05T12:23:30.945Z,26.39
2023-05-05T12:26:04.915Z,26.59
2023-05-05T12:28:49.040Z,26.87
2023-05-05T12:31:22.986Z,27.22
2023-05-05T12:33:57.243Z,27.38
2023-05-05T12:36:41.033Z,27.52
2023-05-05T12:39:19.417Z,27.46
2023-05-05T12:42:07.404Z,27.27
2023-05-05T12:44:39.399Z,27.05
2023-05-05T12:47:10.232Z,26.83
2023-05-05T12:49:55.071Z,26.65
2023-05-05T12:52:45.996Z,26.42
2023-05-05T12:55:37.648Z,26.35
2023-05-05T12:58:11.174Z,26.34
2023-05-05T13:00:44.053Z,26.21
2023-05-05T13:03:29.038Z,26.07
2023-05-05T13:06:01.595Z,25.93
2023-05-05T13:08:44.976Z,25.77
2023-05-05T13:11:15.930Z,25.68
2023-05-05T13:13:46.957Z,25.62
2023-05-05T13:16:21.505Z,25.59
2023-05-05T13:18:56.088Z,25.64
2023-05-05T13:21:28.549Z,25.78
2023-05-05T13:24:19.085Z,25.93
2023-05-05T13:26:56.924Z,26.07
2023-05-05T13:29:31.291Z,26.17
2023-05-05T13:32:02.690Z,26.20
2023-05-05T13:34:32.987Z,26.19
2023-05-05T13:37:04.952Z,26.19
2023-05-05T13:39:39.364Z,26.20
2023-05-05T13:42:09.744Z,26.27
2023-05-05T13:44:40.917Z,26.35
2023-05-05T13:47:16.162Z,26.36
2023-05-05T13:49:46.536Z,26.33
2023-05-05T13:52:17.818Z,26.32
2023-05-05T13:54:48.995Z,26.37
2023-05-05T13:57:26.807Z,26.41
2023-05-05T13:59:59.462Z,26.37
2023-05-05T14:02:47.631Z,26.44
2023-05-05T14:05:18.188Z,26.54
2023-05-05T14:07:48.386Z,26.62
2023-05-05T14:10:19.011Z,26.71
2023-05-05T14:12:54.676Z,26.76
2023-05-05T14:15:27.508Z,26.78
2023-05-05T14:17:59.328Z,26.75
2023-05-05T14:20:29.664Z,26.68
2023-05-05T14:23:10.002Z,26.66
2023-05-05T14:25:46.465Z,26.67
2023-05-05T14:28:18.172Z,26.67
2023-05-05T14:30:49.741Z,26.68
2023-05-05T14:33:19.948Z,26.65
2023-05-05T14:35:51.794Z,26.59
2023-05-05T14:38:22.484Z,26.50
2023-05-05T14:40:53.216Z,26.34
2023-05-05T14:43:25.408Z,26.23
2023-05-05T14:45:58.027Z,26.18
2023-05-05T14:48:29.476Z,26.15
2023-05-05T14:50:59.943Z,26.09
2023-05-05T14:53:30.367Z,26.04
2023-05-05T14:56:01.809Z,25.96
2023-05-05T14:58:33.229Z,25.82
2023-05-05T15:01:04.768Z,25.69
2023-05-05T15:03:36.566Z,25.55
2023-05-05T15:06:08.075Z,25.45
2023-05-05T15:08:39.261Z,25.38
2023-05-05T15:11:09.737Z,25.30
2023-05-05T15:13:41.323Z,25.23
2023-05-05T15:16:11.899Z,25.12
2023-05-05T15:18:42.432Z,25.04
2023-05-05T15:21:12.790Z,24.98
2023-05-05T15:23:44.296Z,24.83
2023-05-05T15:26:14.820Z,24.69
2023-05-05T15:28:45.213Z,24.52
2023-05-05T15:31:16.492Z,24.31
2023-05-05T15:33:49.366Z,24.11
2023-05-05T15:36:22.182Z,23.94
2023-05-05T15:38:52.618Z,23.76
2023-05-05T15:41:26.846Z,23.58
2023-05-05T15:43:57.990Z,23.39
2023-05-05T15:46:28.372Z,23.20
2023-05-05T15:48:58.976Z,23.02
2023-05-05T15:51:29.452Z,22.86
2023-05-05T15:53:59.966Z,22.73
2023-05-05T15:56:32.887Z,22.61
2023-05-05T15:59:03.935Z,22.49
2023-05-05T16:01:35.924Z,22.36
2023-05-05T16:04:09.431Z,22.21
2023-05-05T16:06:39.708Z,22.10
2023-05-05T16:09:10.424Z,21.99
2023-05-05T16:11:40.684Z,21.85
2023-05-05T16:14:10.988Z,21.71
2023-05-05T16:16:41.686Z,21.54
2023-05-05T16:19:12.126Z,21.42
2023-05-05T16:21:42.533Z,21.32
2023-05-05T16:24:15.921Z,21.22
2023-05-05T16:26:46.614Z,21.13
2023-05-05T16:29:17.040Z,21.05
2023-05-05T16:31:48.123Z,20.94
2023-05-05T16:34:18.500Z,20.85
2023-05-05T16:36:48.752Z,20.79
2023-05-05T16:39:19.666Z,20.73
2023-05-05T16:41:50.193Z,20.66
2023-05-05T16:44:20.480Z,20.59
2023-05-05T16:46:50.660Z,20.53
2023-05-05T16:49:21.024Z,20.46
2023-05-05T16:51:53.536Z,20.40
2023-05-05T16:54:26.093Z,20.34
2023-05-05T16:56:56.655Z,20.27
2023-05-05T16:59:28.828Z,20.22
2023-05-05T17:02:01.303Z,20.16
2023-05-05T17:04:32.030Z,20.12
2023-05-05T17:07:02.580Z,20.07
2023-05-05T17:09:33.815Z,20.02
2023-05-05T17:12:06.372Z,19.98
2023-05-05T17:14:37.562Z,19.93
2023-05-05T17:17:08.224Z,19.88
2023-05-05T17:19:39.668Z,19.83
2023-05-05T17:22:10.108Z,19.80
2023-05-05T17:24:40.647Z,19.76
2023-05-05T17:27:13.897Z,19.71
2023-05-05T17:29:44.394Z,19.67
2023-05-05T17:32:14.471Z,19.64
2023-05-05T17:34:44.706Z,19.60
2023-05-05T17:37:15.235Z,19.56
2023-05-05T17:39:45.663Z,19.51
2023-05-05T17:42:24.700Z,19.46
2023-05-05T17:44:55.433Z,19.39
2023-05-05T17:47:25.888Z,19.32
2023-05-05T17:49:57.161Z,19.25
2023-05-05T17:52:27.405Z,19.19
2023-05-05T17:54:58.779Z,19.14
2023-05-05T17:57:29.475Z,19.10
2023-05-05T17:59:59.896Z,19.05
2023-05-05T18:02:30.574Z,19.00
2023-05-05T18:05:03.526Z,18.95
2023-05-05T18:07:34.860Z,18.92
2023-05-05T18:10:06.606Z,18.86
2023-05-05T18:12:37.153Z,18.83
2023-05-05T18:15:09.432Z,18.78
2023-05-05T18:17:40.266Z,18.75
2023-05-05T18:20:12.375Z,18.71
2023-05-05T18:22:45.555Z,18.66
2023-05-05T18:25:18.843Z,18.61
2023-05-05T18:27:49.152Z,18.57
2023-05-05T18:30:19.763Z,18.54
2023-05-05T18:32:50.045Z,18.50
2023-05-05T18:35:21.261Z,18.46
2023-05-05T18:37:52.085Z,18.42
2023-05-05T18:40:22.647Z,18.38
2023-05-05T18:42:53.624Z,18.35
2023-05-05T18:45:24.403Z,18.30
2023-05-05T18:47:56.435Z,18.27
2023-05-05T18:50:26.954Z,18.25
2023-05-05T18:52:57.360Z,18.25
2023-05-05T18:55:28.131Z,18.24
2023-05-05T18:57:58.983Z,18.20
2023-05-05T19:00:29.399Z,18.18
2023-05-05T19:02:59.731Z,18.14
2023-05-05T19:05:31.006Z,18.08
2023-05-05T19:08:01.165Z,18.01
2023-05-05T19:10:31.575Z,17.93
2023-05-05T19:13:02.074Z,17.84
2023-05-05T19:15:32.880Z,17.76
2023-05-05T19:18:05.177Z,17.67
2023-05-05T19:20:36.483Z,17.61
2023-05-05T19:23:06.799Z,17.53
2023-05-05T19:25:37.757Z,17.46
2023-05-05T19:28:08.013Z,17.41
2023-05-05T19:30:38.912Z,17.37
2023-05-05T19:33:09.371Z,17.34
2023-05-05T19:35:39.668Z,17.30
2023-05-05T19:38:10.227Z,17.25
2023-05-05T19:40:40.812Z,17.21
2023-05-05T19:43:11.175Z,17.17
2023-05-05T19:45:41.539Z,17.14
2023-05-05T19:48:11.806Z,17.09
2023-05-05T19:50:42.064Z,17.05
2023-05-05T19:53:12.553Z,17.01
2023-05-05T19:55:42.742Z,16.98
2023-05-05T19:58:13.201Z,16.94
2023-05-05T20:00:45.885Z,16.90
2023-05-05T20:03:17.775Z,16.85
2023-05-05T20:05:48.107Z,16.82
2023-05-05T20:08:18.257Z,16.78
2023-05-05T20:10:50.479Z,16.73
2023-05-05T20:13:20.866Z,16.69
2023-05-05T20:15:51.671Z,16.65
2023-05-05T20:18:22.540Z,16.61
2023-05-05T20:20:52.967Z,16.56
2023-05-05T20:23:23.208Z,16.53
2023-05-05T20:25:54.034Z,16.51
2023-05-05T20:28:25.265Z,16.48
2023-05-05T20:30:55.530Z,16.45
2023-05-05T20:33:25.852Z,16.42
2023-05-05T20:35:56.261Z,16.39
2023-05-05T20:38:26.540Z,16.37
2023-05-05T20:40:57.190Z,16.34
2023-05-05T20:43:27.695Z,16.29
2023-05-05T20:46:00.629Z,16.25
2023-05-05T20:48:31.580Z,16.21
2023-05-05T20:51:06.674Z,16.18
2023-05-05T20:53:37.386Z,16.14
2023-05-05T20:56:09.092Z,16.12
2023-05-05T20:58:39.834Z,16.09
2023-05-05T21:01:10.075Z,16.08
2023-05-05T21:03:40.623Z,16.05
2023-05-05T21:06:10.863Z,16.04
2023-05-05T21:08:41.614Z,16.01
2023-05-05T21:11:12.419Z,15.98
2023-05-05T21:13:45.487Z,15.97
2023-05-05T21:16:15.672Z,15.95
2023-05-05T21:18:47.005Z,15.92
2023-05-05T21:21:17.611Z,15.89
2023-05-05T21:23:49.014Z,15.87
2023-05-05T21:26:19.089Z,15.84
2023-05-05T21:28:49.438Z,15.82
2023-05-05T21:31:22.195Z,15.79
2023-05-05T21:33:53.169Z,15.77
2023-05-05T21:36:24.468Z,15.74
2023-05-05T21:38:56.059Z,15.71
2023-05-05T21:41:27.900Z,15.68
2023-05-05T21:43:58.548Z,15.65
2023-05-05T21:46:28.799Z,15.62
2023-05-05T21:48:59.077Z,15.58
2023-05-05T21:51:29.308Z,15.55
2023-05-05T21:53:59.524Z,15.54
2023-05-05T21:56:29.845Z,15.51
2023-05-05T21:58:59.968Z,15.47
2023-05-05T22:01:30.707Z,15.44
2023-05-05T22:04:01.367Z,15.44
2023-05-05T22:06:32.384Z,15.43
2023-05-05T22:09:02.609Z,15.40
2023-05-05T22:11:32.898Z,15.38
2023-05-05T22:14:03.258Z,15.37
2023-05-05T22:16:33.663Z,15.34
2023-05-05T22:19:03.863Z,15.32
2023-05-05T22:21:34.296Z,15.29
2023-05-05T22:24:05.115Z,15.26
2023-05-05T22:26:39.571Z,15.24
2023-05-05T22:29:11.016Z,15.23
2023-05-05T22:31:41.516Z,15.22
2023-05-05T22:34:12.222Z,15.21
2023-05-05T22:36:42.814Z,15.19
2023-05-05T22:39:13.512Z,15.18
2023-05-05T22:41:44.265Z,15.16
2023-05-05T22:44:15.187Z,15.13
2023-05-05T22:46:45.990Z,15.10
2023-05-05T22:49:19.120Z,15.06
2023-05-05T22:51:51.678Z,15.01
2023-05-05T22:54:23.461Z,14.97
2023-05-05T22:56:54.583Z,14.93
2023-05-05T22:59:25.122Z,14.91
2023-05-05T23:01:55.844Z,14.88
2023-05-05T23:04:26.311Z,14.86
2023-05-05T23:06:57.192Z,14.85
2023-05-05T23:09:27.713Z,14.84
2023-05-05T23:11:57.905Z,14.81
2023-05-05T23:14:28.528Z,14.80
2023-05-05T23:17:00.075Z,14.78
2023-05-05T23:19:32.181Z,14.76
2023-05-05T23:22:02.658Z,14.75
2023-05-05T23:24:33.808Z,14.72
2023-05-05T23:27:06.350Z,14.68
2023-05-05T23:29:37.365Z,14.64
2023-05-05T23:32:09.138Z,14.62
2023-05-05T23:34:41.599Z,14.60
2023-05-05T23:37:13.087Z,14.58
2023-05-05T23:39:45.415Z,14.55
2023-05-05T23:42:17.358Z,14.53
2023-05-05T23:44:47.938Z,14.52
2023-05-05T23:47:20.680Z,14.50
2023-05-05T23:49:51.680Z,14.46
2023-05-05T23:52:22.581Z,14.44
2023-05-05T23:54:53.160Z,14.43
2023-05-05T23:57:23.761Z,14.42
2023-05-05T23:59:54.689Z,14.41
